Cordova, Spain
Current Conditions -  °F | °C
As of 8:00 PM on Friday 28 Nov 2014 (Local Time) from LEBA Reporting Station
Few Clouds Few Clouds  
Wind Chill: 55°   Ceiling: Unl
Heat Index: 55°   Visibility: 6mi
Dew Point: 50°   Wind: 2mph
Humidity: 82%   Direction: NA
Pressure: 29.21"   Gusts: NA
Location:  37.89°N, 4.78°W
Report Text: LEBA 281900Z VRB02KT 9999 FEW049 13/10 Q0989
Loading
Personal Weather Stations






























Interactive Weather Map New forecast layout! Learn more

10-Day Weather Forecast

Advertisements
Track Severe Weather on mobile